sensor_id;sensor_type;location;lat;lon;timestamp;P1;durP1;ratioP1;P2;durP2;ratioP2
82396;SDS011;72034;51.426;7.534;2023-12-22T05:01:05;4.30;;;1.33;;
82396;SDS011;72034;51.426;7.534;2023-12-22T05:03:30;6.47;;;1.47;;
82396;SDS011;72034;51.426;7.534;2023-12-22T05:05:56;6.60;;;1.13;;
82396;SDS011;72034;51.426;7.534;2023-12-22T05:08:21;4.17;;;1.37;;
82396;SDS011;72034;51.426;7.534;2023-12-22T05:10:46;4.63;;;1.27;;
82396;SDS011;72034;51.426;7.534;2023-12-22T05:13:11;3.77;;;1.13;;
82396;SDS011;72034;51.426;7.534;2023-12-22T05:15:37;2.97;;;1.00;;
82396;SDS011;72034;51.426;7.534;2023-12-22T05:18:02;5.47;;;1.70;;
82396;SDS011;72034;51.426;7.534;2023-12-22T05:20:27;11.73;;;1.40;;
82396;SDS011;72034;51.426;7.534;2023-12-22T05:22:53;10.13;;;2.60;;
82396;SDS011;72034;51.426;7.534;2023-12-22T05:25:19;3.70;;;1.33;;
82396;SDS011;72034;51.426;7.534;2023-12-22T05:27:44;7.53;;;1.60;;
82396;SDS011;72034;51.426;7.534;2023-12-22T05:30:09;6.73;;;1.57;;
82396;SDS011;72034;51.426;7.534;2023-12-22T05:32:35;9.27;;;2.20;;
82396;SDS011;72034;51.426;7.534;2023-12-22T05:35:01;5.57;;;1.97;;
82396;SDS011;72034;51.426;7.534;2023-12-22T05:37:26;8.30;;;1.67;;
82396;SDS011;72034;51.426;7.534;2023-12-22T05:39:51;9.13;;;2.07;;
82396;SDS011;72034;51.426;7.534;2023-12-22T05:42:16;7.43;;;2.40;;
82396;SDS011;72034;51.426;7.534;2023-12-22T05:44:42;7.90;;;1.77;;
82396;SDS011;72034;51.426;7.534;2023-12-22T05:47:07;8.00;;;2.83;;
82396;SDS011;72034;51.426;7.534;2023-12-22T05:49:33;8.20;;;1.70;;
82396;SDS011;72034;51.426;7.534;2023-12-22T05:51:58;6.60;;;2.30;;
82396;SDS011;72034;51.426;7.534;2023-12-22T05:54:24;4.90;;;1.70;;
82396;SDS011;72034;51.426;7.534;2023-12-22T05:56:50;7.87;;;2.00;;
82396;SDS011;72034;51.426;7.534;2023-12-22T05:59:16;9.87;;;2.27;;
82396;SDS011;72034;51.426;7.534;2023-12-22T06:01:42;7.20;;;1.90;;
82396;SDS011;72034;51.426;7.534;2023-12-22T06:04:07;8.37;;;1.90;;
82396;SDS011;72034;51.426;7.534;2023-12-22T06:06:32;9.23;;;1.70;;
82396;SDS011;72034;51.426;7.534;2023-12-22T06:08:58;8.13;;;1.67;;
82396;SDS011;72034;51.426;7.534;2023-12-22T06:11:23;12.43;;;1.90;;
82396;SDS011;72034;51.426;7.534;2023-12-22T06:13:49;11.00;;;3.00;;
82396;SDS011;72034;51.426;7.534;2023-12-22T06:16:14;9.37;;;1.93;;
82396;SDS011;72034;51.426;7.534;2023-12-22T06:18:40;8.00;;;2.50;;
82396;SDS011;72034;51.426;7.534;2023-12-22T06:21:06;6.80;;;1.80;;
82396;SDS011;72034;51.426;7.534;2023-12-22T06:23:31;8.73;;;2.20;;
82396;SDS011;72034;51.426;7.534;2023-12-22T06:25:57;11.27;;;2.07;;
82396;SDS011;72034;51.426;7.534;2023-12-22T06:28:22;12.07;;;2.60;;
82396;SDS011;72034;51.426;7.534;2023-12-22T06:30:48;9.97;;;2.53;;
82396;SDS011;72034;51.426;7.534;2023-12-22T06:33:14;10.90;;;2.27;;
82396;SDS011;72034;51.426;7.534;2023-12-22T06:35:40;9.67;;;2.23;;
82396;SDS011;72034;51.426;7.534;2023-12-22T06:38:06;10.33;;;2.70;;
82396;SDS011;72034;51.426;7.534;2023-12-22T06:40:34;11.67;;;2.43;;
82396;SDS011;72034;51.426;7.534;2023-12-22T06:42:59;18.17;;;2.67;;
82396;SDS011;72034;51.426;7.534;2023-12-22T06:45:24;8.70;;;2.07;;
82396;SDS011;72034;51.426;7.534;2023-12-22T06:47:50;13.97;;;3.23;;
82396;SDS011;72034;51.426;7.534;2023-12-22T06:50:15;10.23;;;2.83;;
82396;SDS011;72034;51.426;7.534;2023-12-22T06:52:40;10.50;;;2.37;;
82396;SDS011;72034;51.426;7.534;2023-12-22T06:55:06;10.43;;;2.87;;
82396;SDS011;72034;51.426;7.534;2023-12-22T06:57:31;12.77;;;2.47;;
82396;SDS011;72034;51.426;7.534;2023-12-22T06:59:57;13.70;;;2.50;;
82396;SDS011;72034;51.426;7.534;2023-12-22T07:02:22;14.23;;;3.13;;
82396;SDS011;72034;51.426;7.534;2023-12-22T07:05:05;9.13;;;2.17;;
82396;SDS011;72034;51.426;7.534;2023-12-22T07:07:48;12.53;;;2.60;;
82396;SDS011;72034;51.426;7.534;2023-12-22T07:10:13;12.20;;;2.77;;
82396;SDS011;72034;51.426;7.534;2023-12-22T07:12:38;8.73;;;2.30;;
82396;SDS011;72034;51.426;7.534;2023-12-22T07:15:04;10.07;;;2.30;;
82396;SDS011;72034;51.426;7.534;2023-12-22T07:17:32;10.53;;;3.23;;
82396;SDS011;72034;51.426;7.534;2023-12-22T07:19:57;11.40;;;2.97;;
82396;SDS011;72034;51.426;7.534;2023-12-22T07:22:22;13.27;;;3.17;;
82396;SDS011;72034;51.426;7.534;2023-12-22T07:24:48;17.23;;;3.50;;
82396;SDS011;72034;51.426;7.534;2023-12-22T07:27:14;9.97;;;3.00;;
82396;SDS011;72034;51.426;7.534;2023-12-22T07:29:39;14.47;;;4.40;;
82396;SDS011;72034;51.426;7.534;2023-12-22T07:32:05;14.97;;;3.83;;
82396;SDS011;72034;51.426;7.534;2023-12-22T07:34:30;14.80;;;3.90;;
82396;SDS011;72034;51.426;7.534;2023-12-22T07:36:56;14.67;;;3.93;;
82396;SDS011;72034;51.426;7.534;2023-12-22T07:39:21;16.20;;;4.00;;
82396;SDS011;72034;51.426;7.534;2023-12-22T07:41:47;19.87;;;3.83;;
82396;SDS011;72034;51.426;7.534;2023-12-22T07:44:13;13.93;;;4.13;;
82396;SDS011;72034;51.426;7.534;2023-12-22T07:46:38;18.00;;;3.97;;
82396;SDS011;72034;51.426;7.534;2023-12-22T07:49:03;16.47;;;3.90;;
82396;SDS011;72034;51.426;7.534;2023-12-22T07:51:29;13.23;;;3.40;;
82396;SDS011;72034;51.426;7.534;2023-12-22T07:53:54;11.27;;;3.00;;
82396;SDS011;72034;51.426;7.534;2023-12-22T07:56:19;23.30;;;4.50;;
82396;SDS011;72034;51.426;7.534;2023-12-22T07:58:45;16.13;;;3.23;;
82396;SDS011;72034;51.426;7.534;2023-12-22T08:01:10;17.97;;;3.47;;
82396;SDS011;72034;51.426;7.534;2023-12-22T08:03:35;15.13;;;3.33;;
82396;SDS011;72034;51.426;7.534;2023-12-22T08:06:02;15.85;;;4.03;;
82396;SDS011;72034;51.426;7.534;2023-12-22T08:08:28;17.85;;;3.28;;
82396;SDS011;72034;51.426;7.534;2023-12-22T08:10:53;14.97;;;4.10;;
82396;SDS011;72034;51.426;7.534;2023-12-22T08:13:18;16.42;;;3.30;;
82396;SDS011;72034;51.426;7.534;2023-12-22T08:15:44;15.63;;;3.35;;
82396;SDS011;72034;51.426;7.534;2023-12-22T08:18:09;21.63;;;3.90;;
82396;SDS011;72034;51.426;7.534;2023-12-22T08:20:35;23.40;;;3.77;;
82396;SDS011;72034;51.426;7.534;2023-12-22T08:23:00;18.88;;;3.95;;
82396;SDS011;72034;51.426;7.534;2023-12-22T08:25:25;16.07;;;3.37;;
82396;SDS011;72034;51.426;7.534;2023-12-22T08:27:51;18.92;;;3.92;;
82396;SDS011;72034;51.426;7.534;2023-12-22T08:30:17;13.30;;;3.33;;
82396;SDS011;72034;51.426;7.534;2023-12-22T08:32:42;15.50;;;3.38;;
82396;SDS011;72034;51.426;7.534;2023-12-22T08:35:07;18.30;;;3.70;;
82396;SDS011;72034;51.426;7.534;2023-12-22T08:37:33;15.98;;;4.15;;
82396;SDS011;72034;51.426;7.534;2023-12-22T08:39:58;17.55;;;4.03;;
82396;SDS011;72034;51.426;7.534;2023-12-22T08:42:24;13.10;;;3.72;;
82396;SDS011;72034;51.426;7.534;2023-12-22T08:44:52;18.58;;;3.75;;
82396;SDS011;72034;51.426;7.534;2023-12-22T08:47:17;24.33;;;4.25;;
82396;SDS011;72034;51.426;7.534;2023-12-22T08:49:43;22.67;;;5.68;;
82396;SDS011;72034;51.426;7.534;2023-12-22T08:52:08;23.73;;;5.20;;
82396;SDS011;72034;51.426;7.534;2023-12-22T08:54:36;18.98;;;4.50;;
82396;SDS011;72034;51.426;7.534;2023-12-22T08:57:01;16.80;;;4.60;;
82396;SDS011;72034;51.426;7.534;2023-12-22T08:59:27;19.98;;;4.97;;
82396;SDS011;72034;51.426;7.534;2023-12-22T09:01:52;24.17;;;5.10;;
82396;SDS011;72034;51.426;7.534;2023-12-22T09:04:18;15.32;;;3.97;;
82396;SDS011;72034;51.426;7.534;2023-12-22T09:06:46;25.25;;;5.28;;
82396;SDS011;72034;51.426;7.534;2023-12-22T09:09:11;17.83;;;4.82;;
82396;SDS011;72034;51.426;7.534;2023-12-22T09:11:37;25.63;;;4.78;;
82396;SDS011;72034;51.426;7.534;2023-12-22T09:14:04;26.10;;;6.00;;
82396;SDS011;72034;51.426;7.534;2023-12-22T09:16:34;23.15;;;5.50;;
82396;SDS011;72034;51.426;7.534;2023-12-22T09:19:00;22.73;;;6.90;;
82396;SDS011;72034;51.426;7.534;2023-12-22T09:21:25;20.60;;;5.82;;
82396;SDS011;72034;51.426;7.534;2023-12-22T09:23:51;26.42;;;5.53;;
82396;SDS011;72034;51.426;7.534;2023-12-22T09:26:19;26.20;;;6.43;;
82396;SDS011;72034;51.426;7.534;2023-12-22T09:28:44;18.00;;;5.25;;
82396;SDS011;72034;51.426;7.534;2023-12-22T09:31:10;28.30;;;6.15;;
82396;SDS011;72034;51.426;7.534;2023-12-22T09:33:37;27.33;;;6.15;;
82396;SDS011;72034;51.426;7.534;2023-12-22T09:36:03;33.55;;;6.45;;
82396;SDS011;72034;51.426;7.534;2023-12-22T09:38:28;26.45;;;6.60;;
82396;SDS011;72034;51.426;7.534;2023-12-22T09:40:54;28.30;;;6.05;;
82396;SDS011;72034;51.426;7.534;2023-12-22T09:43:23;28.65;;;6.28;;
82396;SDS011;72034;51.426;7.534;2023-12-22T09:45:49;25.20;;;6.05;;
82396;SDS011;72034;51.426;7.534;2023-12-22T09:48:15;22.52;;;5.15;;
82396;SDS011;72034;51.426;7.534;2023-12-22T09:50:43;12.27;;;4.57;;
82396;SDS011;72034;51.426;7.534;2023-12-22T09:53:14;17.20;;;3.55;;
82396;SDS011;72034;51.426;7.534;2023-12-22T09:55:42;20.75;;;4.20;;
82396;SDS011;72034;51.426;7.534;2023-12-22T09:58:08;9.48;;;2.88;;
82396;SDS011;72034;51.426;7.534;2023-12-22T10:00:35;19.23;;;4.32;;
82396;SDS011;72034;51.426;7.534;2023-12-22T10:03:01;23.17;;;4.63;;
82396;SDS011;72034;51.426;7.534;2023-12-22T10:05:28;26.73;;;4.85;;
82396;SDS011;72034;51.426;7.534;2023-12-22T10:07:55;28.40;;;5.00;;
82396;SDS011;72034;51.426;7.534;2023-12-22T10:10:20;20.63;;;4.88;;
82396;SDS011;72034;51.426;7.534;2023-12-22T10:12:46;20.30;;;4.75;;
82396;SDS011;72034;51.426;7.534;2023-12-22T10:15:12;18.60;;;4.20;;
82396;SDS011;72034;51.426;7.534;2023-12-22T10:17:37;21.83;;;4.05;;
82396;SDS011;72034;51.426;7.534;2023-12-22T10:20:03;16.48;;;4.00;;
82396;SDS011;72034;51.426;7.534;2023-12-22T10:22:29;11.43;;;3.00;;
82396;SDS011;72034;51.426;7.534;2023-12-22T10:24:54;19.58;;;4.50;;
82396;SDS011;72034;51.426;7.534;2023-12-22T10:27:19;20.23;;;4.35;;
82396;SDS011;72034;51.426;7.534;2023-12-22T10:29:57;20.17;;;4.30;;
82396;SDS011;72034;51.426;7.534;2023-12-22T10:32:22;14.60;;;4.10;;
82396;SDS011;72034;51.426;7.534;2023-12-22T10:34:48;22.92;;;4.70;;
82396;SDS011;72034;51.426;7.534;2023-12-22T10:37:17;16.63;;;4.60;;
82396;SDS011;72034;51.426;7.534;2023-12-22T10:39:52;14.55;;;5.32;;
82396;SDS011;72034;51.426;7.534;2023-12-22T10:45:22;15.90;;;4.57;;
82396;SDS011;72034;51.426;7.534;2023-12-22T10:47:54;11.52;;;4.55;;
82396;SDS011;72034;51.426;7.534;2023-12-22T10:50:21;20.98;;;5.50;;
82396;SDS011;72034;51.426;7.534;2023-12-22T10:52:52;16.88;;;5.00;;
82396;SDS011;72034;51.426;7.534;2023-12-22T10:55:34;19.20;;;5.80;;
82396;SDS011;72034;51.426;7.534;2023-12-22T10:58:15;13.38;;;5.90;;
82396;SDS011;72034;51.426;7.534;2023-12-22T11:00:53;13.88;;;5.35;;
82396;SDS011;72034;51.426;7.534;2023-12-22T11:03:18;18.38;;;6.00;;
82396;SDS011;72034;51.426;7.534;2023-12-22T11:05:54;20.13;;;5.93;;
82396;SDS011;72034;51.426;7.534;2023-12-22T11:08:20;15.75;;;6.00;;
82396;SDS011;72034;51.426;7.534;2023-12-22T11:10:50;17.15;;;6.38;;
82396;SDS011;72034;51.426;7.534;2023-12-22T11:13:22;17.45;;;6.57;;
82396;SDS011;72034;51.426;7.534;2023-12-22T11:15:53;12.98;;;5.90;;
82396;SDS011;72034;51.426;7.534;2023-12-22T11:18:21;15.57;;;5.25;;
82396;SDS011;72034;51.426;7.534;2023-12-22T11:20:57;18.80;;;5.22;;
82396;SDS011;72034;51.426;7.534;2023-12-22T11:23:43;10.82;;;4.00;;
82396;SDS011;72034;51.426;7.534;2023-12-22T11:26:33;10.50;;;3.50;;
82396;SDS011;72034;51.426;7.534;2023-12-22T11:32:30;12.05;;;2.90;;
82396;SDS011;72034;51.426;7.534;2023-12-22T11:35:09;12.40;;;3.65;;
82396;SDS011;72034;51.426;7.534;2023-12-22T11:37:40;12.02;;;3.78;;
82396;SDS011;72034;51.426;7.534;2023-12-22T11:40:19;9.68;;;3.15;;
82396;SDS011;72034;51.426;7.534;2023-12-22T11:43:07;10.18;;;3.30;;
82396;SDS011;72034;51.426;7.534;2023-12-22T11:45:44;7.78;;;2.85;;
82396;SDS011;72034;51.426;7.534;2023-12-22T11:48:09;6.63;;;3.03;;
82396;SDS011;72034;51.426;7.534;2023-12-22T11:50:35;7.28;;;2.30;;
82396;SDS011;72034;51.426;7.534;2023-12-22T11:53:25;7.45;;;3.05;;
82396;SDS011;72034;51.426;7.534;2023-12-22T11:56:05;6.00;;;1.98;;
82396;SDS011;72034;51.426;7.534;2023-12-22T11:58:48;5.97;;;2.58;;
82396;SDS011;72034;51.426;7.534;2023-12-22T12:01:18;7.63;;;2.90;;
82396;SDS011;72034;51.426;7.534;2023-12-22T12:03:57;4.70;;;2.08;;
82396;SDS011;72034;51.426;7.534;2023-12-22T12:06:34;6.75;;;2.33;;
82396;SDS011;72034;51.426;7.534;2023-12-22T12:09:10;8.48;;;2.72;;
82396;SDS011;72034;51.426;7.534;2023-12-22T12:14:37;10.65;;;2.95;;
82396;SDS011;72034;51.426;7.534;2023-12-22T12:17:09;7.15;;;2.92;;
82396;SDS011;72034;51.426;7.534;2023-12-22T12:19:43;6.82;;;2.53;;
82396;SDS011;72034;51.426;7.534;2023-12-22T12:22:20;4.07;;;2.10;;
82396;SDS011;72034;51.426;7.534;2023-12-22T12:24:49;5.00;;;2.10;;
82396;SDS011;72034;51.426;7.534;2023-12-22T12:27:20;3.08;;;1.95;;
82396;SDS011;72034;51.426;7.534;2023-12-22T12:29:46;5.03;;;1.55;;
82396;SDS011;72034;51.426;7.534;2023-12-22T12:32:23;6.25;;;1.80;;
82396;SDS011;72034;51.426;7.534;2023-12-22T12:34:49;4.18;;;1.52;;
82396;SDS011;72034;51.426;7.534;2023-12-22T12:37:18;3.58;;;1.40;;
82396;SDS011;72034;51.426;7.534;2023-12-22T12:39:52;4.85;;;1.90;;
82396;SDS011;72034;51.426;7.534;2023-12-22T12:42:22;3.42;;;1.38;;
82396;SDS011;72034;51.426;7.534;2023-12-22T12:44:59;3.53;;;1.30;;
82396;SDS011;72034;51.426;7.534;2023-12-22T12:47:25;3.50;;;1.40;;
82396;SDS011;72034;51.426;7.534;2023-12-22T12:50:06;3.92;;;1.60;;
82396;SDS011;72034;51.426;7.534;2023-12-22T12:52:38;3.80;;;1.23;;
82396;SDS011;72034;51.426;7.534;2023-12-22T12:55:36;5.35;;;2.28;;
82396;SDS011;72034;51.426;7.534;2023-12-22T12:58:12;4.68;;;1.95;;
82396;SDS011;72034;51.426;7.534;2023-12-22T13:00:43;4.93;;;1.80;;
82396;SDS011;72034;51.426;7.534;2023-12-22T13:03:08;5.03;;;2.35;;
82396;SDS011;72034;51.426;7.534;2023-12-22T13:05:34;5.95;;;2.90;;
82396;SDS011;72034;51.426;7.534;2023-12-22T13:08:11;5.65;;;3.60;;
82396;SDS011;72034;51.426;7.534;2023-12-22T13:10:41;5.57;;;3.58;;
82396;SDS011;72034;51.426;7.534;2023-12-22T13:13:12;6.40;;;3.55;;
82396;SDS011;72034;51.426;7.534;2023-12-22T13:15:40;5.82;;;3.80;;
82396;SDS011;72034;51.426;7.534;2023-12-22T13:18:23;8.63;;;4.50;;
82396;SDS011;72034;51.426;7.534;2023-12-22T13:20:57;9.40;;;3.90;;
82396;SDS011;72034;51.426;7.534;2023-12-22T13:23:28;8.75;;;2.80;;
82396;SDS011;72034;51.426;7.534;2023-12-22T13:25:57;7.60;;;3.30;;
82396;SDS011;72034;51.426;7.534;2023-12-22T13:28:28;8.88;;;3.25;;
82396;SDS011;72034;51.426;7.534;2023-12-22T13:31:09;7.53;;;3.33;;
82396;SDS011;72034;51.426;7.534;2023-12-22T13:33:38;6.80;;;2.72;;
82396;SDS011;72034;51.426;7.534;2023-12-22T13:36:42;8.32;;;2.47;;
82396;SDS011;72034;51.426;7.534;2023-12-22T13:39:13;5.53;;;2.42;;
82396;SDS011;72034;51.426;7.534;2023-12-22T13:41:49;5.90;;;1.92;;
82396;SDS011;72034;51.426;7.534;2023-12-22T13:44:18;5.13;;;2.20;;
82396;SDS011;72034;51.426;7.534;2023-12-22T13:46:45;8.05;;;2.78;;
82396;SDS011;72034;51.426;7.534;2023-12-22T13:49:17;8.93;;;2.25;;
82396;SDS011;72034;51.426;7.534;2023-12-22T13:51:44;8.55;;;2.45;;
82396;SDS011;72034;51.426;7.534;2023-12-22T13:54:32;8.73;;;2.42;;
82396;SDS011;72034;51.426;7.534;2023-12-22T13:57:00;6.75;;;1.83;;
82396;SDS011;72034;51.426;7.534;2023-12-22T13:59:30;5.40;;;2.25;;
82396;SDS011;72034;51.426;7.534;2023-12-22T14:02:00;7.45;;;2.15;;
82396;SDS011;72034;51.426;7.534;2023-12-22T14:04:32;8.60;;;2.30;;
82396;SDS011;72034;51.426;7.534;2023-12-22T14:07:08;7.30;;;2.28;;
82396;SDS011;72034;51.426;7.534;2023-12-22T14:09:36;4.13;;;2.20;;
82396;SDS011;72034;51.426;7.534;2023-12-22T14:12:05;5.55;;;2.47;;
82396;SDS011;72034;51.426;7.534;2023-12-22T14:14:34;6.55;;;2.67;;
82396;SDS011;72034;51.426;7.534;2023-12-22T14:17:07;5.18;;;2.53;;
82396;SDS011;72034;51.426;7.534;2023-12-22T14:19:35;5.90;;;3.00;;
82396;SDS011;72034;51.426;7.534;2023-12-22T14:22:00;6.97;;;3.10;;
82396;SDS011;72034;51.426;7.534;2023-12-22T14:24:44;8.30;;;2.92;;
82396;SDS011;72034;51.426;7.534;2023-12-22T14:27:12;8.07;;;3.25;;
82396;SDS011;72034;51.426;7.534;2023-12-22T14:29:45;6.95;;;2.58;;
82396;SDS011;72034;51.426;7.534;2023-12-22T14:32:20;5.25;;;2.53;;
82396;SDS011;72034;51.426;7.534;2023-12-22T14:34:51;5.57;;;2.80;;
82396;SDS011;72034;51.426;7.534;2023-12-22T14:37:17;6.57;;;2.80;;
82396;SDS011;72034;51.426;7.534;2023-12-22T14:39:46;8.60;;;2.47;;
82396;SDS011;72034;51.426;7.534;2023-12-22T14:42:17;5.57;;;2.45;;
82396;SDS011;72034;51.426;7.534;2023-12-22T14:44:47;7.32;;;2.80;;
82396;SDS011;72034;51.426;7.534;2023-12-22T14:47:24;4.82;;;2.60;;
82396;SDS011;72034;51.426;7.534;2023-12-22T14:49:57;6.03;;;1.88;;
82396;SDS011;72034;51.426;7.534;2023-12-22T14:52:31;8.13;;;2.50;;
82396;SDS011;72034;51.426;7.534;2023-12-22T14:55:23;6.63;;;2.20;;
82396;SDS011;72034;51.426;7.534;2023-12-22T15:00:23;8.13;;;2.95;;
82396;SDS011;72034;51.426;7.534;2023-12-22T15:02:55;5.57;;;2.22;;
82396;SDS011;72034;51.426;7.534;2023-12-22T15:05:23;7.30;;;2.33;;
82396;SDS011;72034;51.426;7.534;2023-12-22T15:07:57;6.28;;;2.10;;
82396;SDS011;72034;51.426;7.534;2023-12-22T15:10:38;7.18;;;2.10;;
82396;SDS011;72034;51.426;7.534;2023-12-22T15:13:15;6.47;;;2.40;;
82396;SDS011;72034;51.426;7.534;2023-12-22T15:16:08;3.72;;;2.03;;
82396;SDS011;72034;51.426;7.534;2023-12-22T15:18:40;7.22;;;2.00;;
82396;SDS011;72034;51.426;7.534;2023-12-22T15:21:08;7.65;;;1.90;;
82396;SDS011;72034;51.426;7.534;2023-12-22T15:23:36;6.68;;;1.60;;
82396;SDS011;72034;51.426;7.534;2023-12-22T15:26:07;6.22;;;1.95;;
82396;SDS011;72034;51.426;7.534;2023-12-22T15:28:59;4.53;;;2.33;;
82396;SDS011;72034;51.426;7.534;2023-12-22T15:35:04;7.32;;;2.75;;
82396;SDS011;72034;51.426;7.534;2023-12-22T15:55:53;6.80;;;1.70;;
82396;SDS011;72034;51.426;7.534;2023-12-22T16:01:25;5.53;;;1.38;;
82396;SDS011;72034;51.426;7.534;2023-12-22T16:03:56;4.35;;;1.30;;
82396;SDS011;72034;51.426;7.534;2023-12-22T16:06:29;3.25;;;1.10;;
82396;SDS011;72034;51.426;7.534;2023-12-22T16:09:07;2.53;;;1.17;;
82396;SDS011;72034;51.426;7.534;2023-12-22T16:14:24;4.47;;;1.30;;
82396;SDS011;72034;51.426;7.534;2023-12-22T16:17:13;4.65;;;1.70;;
82396;SDS011;72034;51.426;7.534;2023-12-22T16:19:55;5.82;;;2.10;;
82396;SDS011;72034;51.426;7.534;2023-12-22T16:23:11;4.30;;;2.55;;
82396;SDS011;72034;51.426;7.534;2023-12-22T16:29:29;11.57;;;3.00;;
82396;SDS011;72034;51.426;7.534;2023-12-22T16:31:58;8.50;;;3.85;;
82396;SDS011;72034;51.426;7.534;2023-12-22T16:34:46;8.07;;;4.35;;
82396;SDS011;72034;51.426;7.534;2023-12-22T16:38:02;9.68;;;4.38;;
82396;SDS011;72034;51.426;7.534;2023-12-22T16:40:30;8.65;;;3.55;;
82396;SDS011;72034;51.426;7.534;2023-12-22T16:43:03;10.98;;;3.85;;
82396;SDS011;72034;51.426;7.534;2023-12-22T16:45:30;7.28;;;3.63;;
82396;SDS011;72034;51.426;7.534;2023-12-22T16:47:55;8.80;;;3.67;;
82396;SDS011;72034;51.426;7.534;2023-12-22T16:50:20;6.72;;;2.40;;
82396;SDS011;72034;51.426;7.534;2023-12-22T16:52:46;3.97;;;2.15;;
82396;SDS011;72034;51.426;7.534;2023-12-22T16:55:11;10.63;;;3.05;;
82396;SDS011;72034;51.426;7.534;2023-12-22T16:57:42;8.57;;;2.95;;
82396;SDS011;72034;51.426;7.534;2023-12-22T17:00:07;10.63;;;2.53;;
82396;SDS011;72034;51.426;7.534;2023-12-22T17:02:34;8.27;;;2.40;;
82396;SDS011;72034;51.426;7.534;2023-12-22T17:05:00;10.30;;;2.88;;
82396;SDS011;72034;51.426;7.534;2023-12-22T17:07:26;14.32;;;3.15;;
82396;SDS011;72034;51.426;7.534;2023-12-22T17:09:51;12.43;;;3.45;;
82396;SDS011;72034;51.426;7.534;2023-12-22T17:12:17;9.63;;;2.88;;
82396;SDS011;72034;51.426;7.534;2023-12-22T17:14:42;10.18;;;3.38;;
82396;SDS011;72034;51.426;7.534;2023-12-22T17:17:07;8.70;;;3.30;;
82396;SDS011;72034;51.426;7.534;2023-12-22T17:19:32;9.57;;;2.80;;
82396;SDS011;72034;51.426;7.534;2023-12-22T17:21:59;5.78;;;2.58;;
82396;SDS011;72034;51.426;7.534;2023-12-22T17:24:24;10.52;;;2.85;;
82396;SDS011;72034;51.426;7.534;2023-12-22T17:26:50;10.52;;;3.25;;
82396;SDS011;72034;51.426;7.534;2023-12-22T17:29:16;6.38;;;2.75;;
82396;SDS011;72034;51.426;7.534;2023-12-22T17:31:41;9.82;;;2.83;;
82396;SDS011;72034;51.426;7.534;2023-12-22T17:34:06;11.05;;;2.47;;
82396;SDS011;72034;51.426;7.534;2023-12-22T17:36:33;12.45;;;3.38;;
82396;SDS011;72034;51.426;7.534;2023-12-22T17:38:58;10.10;;;2.08;;
82396;SDS011;72034;51.426;7.534;2023-12-22T17:41:24;13.52;;;2.78;;
82396;SDS011;72034;51.426;7.534;2023-12-22T17:43:49;16.75;;;2.88;;
82396;SDS011;72034;51.426;7.534;2023-12-22T17:46:15;7.50;;;2.42;;
82396;SDS011;72034;51.426;7.534;2023-12-22T17:48:40;12.48;;;1.95;;
82396;SDS011;72034;51.426;7.534;2023-12-22T17:51:05;6.00;;;1.42;;
82396;SDS011;72034;51.426;7.534;2023-12-22T17:53:32;3.03;;;1.25;;
82396;SDS011;72034;51.426;7.534;2023-12-22T17:55:57;4.18;;;1.63;;
82396;SDS011;72034;51.426;7.534;2023-12-22T17:58:23;1.80;;;0.90;;
82396;SDS011;72034;51.426;7.534;2023-12-22T18:00:49;4.72;;;1.35;;
82396;SDS011;72034;51.426;7.534;2023-12-22T18:03:14;2.15;;;1.20;;
82396;SDS011;72034;51.426;7.534;2023-12-22T18:05:39;2.85;;;1.45;;
82396;SDS011;72034;51.426;7.534;2023-12-22T18:08:05;1.25;;;0.90;;
82396;SDS011;72034;51.426;7.534;2023-12-22T18:10:31;2.55;;;1.15;;
82396;SDS011;72034;51.426;7.534;2023-12-22T18:12:58;2.08;;;0.90;;
82396;SDS011;72034;51.426;7.534;2023-12-22T18:15:24;3.90;;;1.00;;
82396;SDS011;72034;51.426;7.534;2023-12-22T18:17:50;3.05;;;1.35;;
82396;SDS011;72034;51.426;7.534;2023-12-22T18:20:15;1.35;;;0.90;;
82396;SDS011;72034;51.426;7.534;2023-12-22T18:22:40;3.78;;;0.90;;
82396;SDS011;72034;51.426;7.534;2023-12-22T18:25:06;4.55;;;1.42;;
82396;SDS011;72034;51.426;7.534;2023-12-22T18:27:34;3.05;;;1.52;;
82396;SDS011;72034;51.426;7.534;2023-12-22T18:29:59;5.90;;;1.50;;
82396;SDS011;72034;51.426;7.534;2023-12-22T18:32:24;4.70;;;1.48;;
82396;SDS011;72034;51.426;7.534;2023-12-22T18:34:50;3.60;;;1.35;;
82396;SDS011;72034;51.426;7.534;2023-12-22T18:37:15;3.42;;;1.30;;
82396;SDS011;72034;51.426;7.534;2023-12-22T18:39:40;4.68;;;1.30;;
82396;SDS011;72034;51.426;7.534;2023-12-22T18:42:06;2.22;;;1.27;;
82396;SDS011;72034;51.426;7.534;2023-12-22T18:44:31;3.60;;;1.60;;
82396;SDS011;72034;51.426;7.534;2023-12-22T18:46:56;5.10;;;1.80;;
82396;SDS011;72034;51.426;7.534;2023-12-22T18:49:22;5.55;;;1.80;;
82396;SDS011;72034;51.426;7.534;2023-12-22T18:51:48;4.20;;;1.85;;
82396;SDS011;72034;51.426;7.534;2023-12-22T18:54:13;5.88;;;1.50;;
82396;SDS011;72034;51.426;7.534;2023-12-22T18:56:38;3.35;;;1.70;;
82396;SDS011;72034;51.426;7.534;2023-12-22T18:59:04;4.55;;;1.55;;
82396;SDS011;72034;51.426;7.534;2023-12-22T19:01:29;6.07;;;1.88;;
82396;SDS011;72034;51.426;7.534;2023-12-22T19:03:54;4.07;;;1.40;;
82396;SDS011;72034;51.426;7.534;2023-12-22T19:06:20;5.47;;;1.80;;
82396;SDS011;72034;51.426;7.534;2023-12-22T19:08:45;6.57;;;1.85;;
82396;SDS011;72034;51.426;7.534;2023-12-22T19:11:11;5.05;;;2.00;;
82396;SDS011;72034;51.426;7.534;2023-12-22T19:13:37;4.95;;;1.90;;
82396;SDS011;72034;51.426;7.534;2023-12-22T19:16:02;4.05;;;1.67;;
82396;SDS011;72034;51.426;7.534;2023-12-22T19:18:27;5.47;;;2.20;;
82396;SDS011;72034;51.426;7.534;2023-12-22T19:20:53;4.75;;;1.80;;
82396;SDS011;72034;51.426;7.534;2023-12-22T19:23:18;2.80;;;1.60;;
82396;SDS011;72034;51.426;7.534;2023-12-22T19:25:45;7.25;;;2.17;;
82396;SDS011;72034;51.426;7.534;2023-12-22T19:28:10;4.10;;;1.70;;
82396;SDS011;72034;51.426;7.534;2023-12-22T19:30:35;5.35;;;1.83;;
82396;SDS011;72034;51.426;7.534;2023-12-22T19:33:01;5.43;;;2.10;;
82396;SDS011;72034;51.426;7.534;2023-12-22T19:35:26;3.03;;;1.70;;
82396;SDS011;72034;51.426;7.534;2023-12-22T19:37:52;4.43;;;1.75;;
82396;SDS011;72034;51.426;7.534;2023-12-22T19:40:17;5.45;;;2.63;;
82396;SDS011;72034;51.426;7.534;2023-12-22T19:42:43;4.95;;;3.40;;
82396;SDS011;72034;51.426;7.534;2023-12-22T19:45:08;7.47;;;3.33;;
82396;SDS011;72034;51.426;7.534;2023-12-22T19:47:36;5.60;;;2.90;;
82396;SDS011;72034;51.426;7.534;2023-12-22T19:50:02;5.40;;;2.15;;
82396;SDS011;72034;51.426;7.534;2023-12-22T19:52:27;3.83;;;1.98;;
82396;SDS011;72034;51.426;7.534;2023-12-22T19:54:56;5.57;;;2.20;;
82396;SDS011;72034;51.426;7.534;2023-12-22T19:57:22;6.97;;;2.10;;
82396;SDS011;72034;51.426;7.534;2023-12-22T19:59:47;9.70;;;2.97;;
82396;SDS011;72034;51.426;7.534;2023-12-22T20:02:12;4.22;;;1.70;;
82396;SDS011;72034;51.426;7.534;2023-12-22T20:04:37;4.57;;;1.75;;
82396;SDS011;72034;51.426;7.534;2023-12-22T20:07:03;5.47;;;2.30;;
82396;SDS011;72034;51.426;7.534;2023-12-22T20:09:28;3.20;;;2.00;;
82396;SDS011;72034;51.426;7.534;2023-12-22T20:11:54;4.05;;;1.45;;
82396;SDS011;72034;51.426;7.534;2023-12-22T20:14:19;5.25;;;1.55;;
82396;SDS011;72034;51.426;7.534;2023-12-22T20:16:45;6.40;;;1.50;;
82396;SDS011;72034;51.426;7.534;2023-12-22T20:19:10;3.90;;;2.15;;
82396;SDS011;72034;51.426;7.534;2023-12-22T20:21:35;2.63;;;1.40;;
82396;SDS011;72034;51.426;7.534;2023-12-22T20:24:00;6.05;;;1.55;;
82396;SDS011;72034;51.426;7.534;2023-12-22T20:26:26;5.90;;;2.15;;
82396;SDS011;72034;51.426;7.534;2023-12-22T20:28:52;6.95;;;1.67;;
82396;SDS011;72034;51.426;7.534;2023-12-22T20:31:18;4.20;;;1.48;;
82396;SDS011;72034;51.426;7.534;2023-12-22T20:33:43;5.55;;;1.80;;
82396;SDS011;72034;51.426;7.534;2023-12-22T20:36:08;4.25;;;1.55;;